Terminal Aerodrome Forecast
Issued by NWS

Home | Current Version | Previous Version | Text Only | Print | Product List | Glossary On
Versions: 1 2 3 4 5 6 7 8 9 10 11 12 13 14 15 16 17 18 19 20 21 22 23 24 25 26 27
000
FTUS44 KHGX 282345 RRA
TAFCXO
TAF
KCXO 282345Z 2900/2924 14019G27KT P6SM FEW035
     FM290300 15012KT P6SM BKN020
     FM290900 15010KT 4SM BR OVC012
     FM291300 17010G16KT P6SM VCSH OVC017
     FM291500 15013G22KT P6SM VCTS BKN020CB BKN030 OVC250
      TEMPO 2916/2919 VRB10G25KT 4SM -TSRA BKN025CB OVC060
     FM292200 18011G18KT P6SM OVC050=

USA.gov is the U.S. government's official web portal to all federal, state and local government web resources and services.